Wetterdaten: Woche 31.08.09 - 06.09.09 (KW36)
Datum Zeit Temp. Innen Temp. Aussen UV X Diff Temp. Feuchte Inne Feuchte Auss Sonnenschein Luftdruck Regen ab 0,1 Wind Sonnenschein Windben
31.08.2009 00:00 20,9 C 12,1 C 0,0 UV-I 0,0 C 51 % 81 % 0 % 1020,3 hPa 0,0 l/m 0,0 km/h (0 Bft) 0,00 h 0,0 km/h (0 Bft)
31.08.2009 01:00 20,6 C 11,6 C 0,0 UV-I 0,1 C 51 % 83 % 0 % 1020,1 hPa 0,0 l/m 0,4 km/h (0 Bft) 0,00 h 1,0 km/h (0 Bft)
31.08.2009 02:00 20,4 C 11,6 C 0,0 UV-I 0,0 C 51 % 83 % 0 % 1019,7 hPa 0,0 l/m 0,1 km/h (0 Bft) 0,00 h 0,7 km/h (0 Bft)
31.08.2009 03:00 20,2 C 11,5 C 0,0 UV-I 0,0 C 51 % 83 % 0 % 1019,5 hPa 0,0 l/m 1,5 km/h (1 Bft) 0,00 h 3,9 km/h (1 Bft)
31.08.2009 04:00 20,1 C 11,5 C 0,0 UV-I 0,0 C 51 % 84 % 0 % 1019,1 hPa 0,0 l/m 0,9 km/h (0 Bft) 0,00 h 2,4 km/h (1 Bft)
31.08.2009 05:00 19,9 C 11,2 C 0,0 UV-I 0,0 C 51 % 84 % 0 % 1018,8 hPa 0,0 l/m 1,6 km/h (1 Bft) 0,00 h 3,6 km/h (1 Bft)
31.08.2009 06:00 19,7 C 10,8 C 0,0 UV-I 0,0 C 51 % 84 % 0 % 1018,4 hPa 0,0 l/m 1,0 km/h (0 Bft) 0,00 h 3,0 km/h (1 Bft)
31.08.2009 07:00 19,6 C 10,7 C 0,1 UV-I 0,0 C 51 % 85 % 0 % 1018,6 hPa 0,0 l/m 1,1 km/h (0 Bft) 0,00 h 3,3 km/h (1 Bft)
31.08.2009 08:00 19,7 C 11,6 C 0,6 UV-I 0,6 C 52 % 85 % 18 % 1018,6 hPa 0,0 l/m 2,8 km/h (1 Bft) 0,00 h 5,8 km/h (2 Bft)
31.08.2009 09:00 19,9 C 13,8 C 1,4 UV-I 2,4 C 53 % 82 % 64 % 1018,9 hPa 0,0 l/m 1,9 km/h (1 Bft) 0,20 h 4,2 km/h (1 Bft)
31.08.2009 10:00 20,4 C 17,1 C 6,5 UV-I 5,8 C 53 % 73 % 100 % 1019,0 hPa 0,0 l/m 3,2 km/h (1 Bft) 0,90 h 6,6 km/h (2 Bft)
31.08.2009 11:00 20,9 C 21,4 C 12,9 UV-I 6,0 C 53 % 59 % 100 % 1019,0 hPa 0,0 l/m 3,1 km/h (1 Bft) 0,90 h 6,6 km/h (2 Bft)
31.08.2009 12:00 21,4 C 24,8 C 11,1 UV-I 4,5 C 52 % 48 % 100 % 1018,7 hPa 0,0 l/m 3,9 km/h (1 Bft) 0,83 h 7,9 km/h (2 Bft)
31.08.2009 13:00 22,5 C 27,1 C 5,8 UV-I 3,4 C 50 % 41 % 94 % 1017,8 hPa 0,0 l/m 5,0 km/h (1 Bft) 0,87 h 8,0 km/h (2 Bft)
31.08.2009 14:00 24,2 C 28,4 C 10,3 UV-I 2,5 C 47 % 39 % 72 % 1020,0 hPa 0,0 l/m 6,8 km/h (2 Bft) 0,30 h 13,0 km/h (3 Bft)
31.08.2009 15:00 26,0 C 29,2 C 10,0 UV-I 3,2 C 44 % 38 % 91 % 1020,2 hPa 0,0 l/m 4,4 km/h (1 Bft) 0,80 h 8,0 km/h (2 Bft)
31.08.2009 16:00 27,5 C 29,7 C 2,1 UV-I 3,6 C 41 % 37 % 97 % 1019,8 hPa 0,0 l/m 4,4 km/h (1 Bft) 1,00 h 7,8 km/h (2 Bft)
31.08.2009 17:00 26,9 C 29,1 C 1,5 UV-I 2,4 C 42 % 37 % 64 % 1016,6 hPa 0,0 l/m 2,8 km/h (1 Bft) 0,53 h 5,5 km/h (1 Bft)
31.08.2009 18:00 25,6 C 27,4 C 0,7 UV-I 0,1 C 44 % 40 % 3 % 1014,7 hPa 0,0 l/m 1,4 km/h (1 Bft) 0,00 h 3,4 km/h (1 Bft)
31.08.2009 19:00 25,1 C 25,9 C 0,1 UV-I 0,0 C 45 % 43 % 0 % 1013,8 hPa 0,0 l/m 0,2 km/h (0 Bft) 0,00 h 0,4 km/h (0 Bft)
31.08.2009 20:00 24,6 C 23,9 C 0,0 UV-I 0,0 C 47 % 48 % 0 % 1013,2 hPa 0,0 l/m 0,0 km/h (0 Bft) 0,00 h 0,0 km/h (0 Bft)
31.08.2009 21:00 24,2 C 21,9 C 0,0 UV-I 0,0 C 48 % 52 % 0 % 1012,8 hPa 0,0 l/m 0,0 km/h (0 Bft) 0,00 h 0,2 km/h (0 Bft)
31.08.2009 22:00 23,8 C 20,4 C 0,0 UV-I 0,0 C 48 % 54 % 0 % 1012,4 hPa 0,0 l/m 0,2 km/h (0 Bft) 0,00 h 0,5 km/h (0 Bft)
31.08.2009 23:00 23,5 C 19,8 C 0,0 UV-I 0,0 C 47 % 53 % 0 % 1012,0 hPa 0,0 l/m 2,1 km/h (1 Bft) 0,00 h 4,8 km/h (1 Bft)
01.09.2009 00:00 23,3 C 19,1 C 0,0 UV-I 0,0 C 46 % 55 % 0 % 1011,3 hPa 0,0 l/m 1,1 km/h (0 Bft) 0,00 h 3,0 km/h (1 Bft)
01.09.2009 01:00 23,1 C 18,2 C 0,0 UV-I 0,0 C 47 % 57 % 0 % 1010,9 hPa 0,0 l/m 0,3 km/h (0 Bft) 0,00 h 1,6 km/h (1 Bft)
01.09.2009 02:00 23,0 C 17,4 C 0,0 UV-I 0,0 C 47 % 59 % 0 % 1010,2 hPa 0,0 l/m 0,1 km/h (0 Bft) 0,00 h 0,1 km/h (0 Bft)
01.09.2009 03:00 22,8 C 16,9 C 0,0 UV-I 0,0 C 47 % 61 % 0 % 1009,6 hPa 0,0 l/m 0,7 km/h (0 Bft) 0,00 h 2,0 km/h (1 Bft)
01.09.2009 04:00 22,6 C 16,5 C 0,0 UV-I 0,0 C 47 % 62 % 0 % 1009,3 hPa 0,0 l/m 0,9 km/h (0 Bft) 0,00 h 3,0 km/h (1 Bft)
01.09.2009 05:00 22,4 C 16,5 C 0,0 UV-I 0,0 C 47 % 63 % 0 % 1008,6 hPa 0,0 l/m 2,2 km/h (1 Bft) 0,00 h 4,7 km/h (1 Bft)
01.09.2009 06:00 22,2 C 16,7 C 0,0 UV-I 0,0 C 48 % 64 % 0 % 1008,3 hPa 0,0 l/m 2,4 km/h (1 Bft) 0,00 h 5,4 km/h (1 Bft)
01.09.2009 07:00 22,1 C 16,7 C 0,1 UV-I 0,0 C 49 % 67 % 0 % 1008,6 hPa 0,0 l/m 2,4 km/h (1 Bft) 0,00 h 5,2 km/h (1 Bft)
01.09.2009 08:00 22,1 C 17,4 C 0,6 UV-I 0,5 C 50 % 69 % 14 % 1009,0 hPa 0,0 l/m 2,3 km/h (1 Bft) 0,00 h 5,3 km/h (1 Bft)
01.09.2009 09:00 22,4 C 19,4 C 1,4 UV-I 2,2 C 52 % 70 % 57 % 1009,5 hPa 0,0 l/m 2,9 km/h (1 Bft) 0,23 h 6,0 km/h (2 Bft)
01.09.2009 10:00 22,9 C 22,9 C 0,7 UV-I 1,6 C 53 % 58 % 39 % 1010,8 hPa 0,0 l/m 7,0 km/h (2 Bft) 0,17 h 12,8 km/h (3 Bft)
01.09.2009 11:00 23,1 C 23,0 C 0,4 UV-I 0,0 C 52 % 56 % 0 % 1011,1 hPa 0,0 l/m 3,9 km/h (1 Bft) 0,00 h 6,6 km/h (2 Bft)
01.09.2009 12:00 23,2 C 22,8 C 1,6 UV-I 0,6 C 53 % 58 % 17 % 1011,4 hPa 0,0 l/m 4,0 km/h (1 Bft) 0,00 h 7,0 km/h (2 Bft)
01.09.2009 13:00 23,4 C 22,7 C 0,4 UV-I 0,0 C 53 % 57 % 1 % 1011,9 hPa 0,0 l/m 4,4 km/h (1 Bft) 0,00 h 7,5 km/h (2 Bft)
01.09.2009 14:00 23,1 C 20,4 C 0,1 UV-I 0,0 C 55 % 68 % 0 % 1012,4 hPa 0,2 l/m 1,5 km/h (1 Bft) 0,00 h 3,5 km/h (1 Bft)
01.09.2009 15:00 22,9 C 18,9 C 0,2 UV-I 0,0 C 60 % 80 % 0 % 1013,1 hPa 0,3 l/m 1,2 km/h (1 Bft) 0,00 h 3,8 km/h (1 Bft)
01.09.2009 16:00 22,8 C 18,4 C 0,1 UV-I 0,0 C 63 % 85 % 0 % 1013,1 hPa 0,0 l/m 1,2 km/h (1 Bft) 0,00 h 2,6 km/h (1 Bft)
01.09.2009 17:00 22,7 C 18,3 C 0,0 UV-I 0,0 C 64 % 88 % 0 % 1013,0 hPa 0,0 l/m 0,2 km/h (0 Bft) 0,00 h 0,5 km/h (0 Bft)
01.09.2009 18:00 22,6 C 18,2 C 0,0 UV-I 0,0 C 65 % 89 % 0 % 1012,5 hPa 0,1 l/m 0,9 km/h (0 Bft) 0,00 h 1,4 km/h (1 Bft)
01.09.2009 19:00 22,5 C 17,8 C 0,0 UV-I 0,0 C 66 % 90 % 0 % 1012,4 hPa 0,0 l/m 1,3 km/h (1 Bft) 0,00 h 3,0 km/h (1 Bft)
01.09.2009 20:00 22,3 C 17,4 C 0,0 UV-I 0,0 C 66 % 90 % 0 % 1012,2 hPa 0,0 l/m 1,5 km/h (1 Bft) 0,00 h 2,8 km/h (1 Bft)
01.09.2009 21:00 22,2 C 17,2 C 0,0 UV-I 0,0 C 67 % 91 % 0 % 1013,0 hPa 0,0 l/m 0,1 km/h (0 Bft) 0,00 h 0,3 km/h (0 Bft)
01.09.2009 22:00 22,1 C 17,0 C 0,0 UV-I 0,0 C 67 % 91 % 0 % 1013,2 hPa 0,0 l/m 0,4 km/h (0 Bft) 0,00 h 1,4 km/h (1 Bft)
01.09.2009 23:00 21,9 C 16,5 C 0,0 UV-I 0,0 C 66 % 91 % 0 % 1013,7 hPa 0,0 l/m 1,3 km/h (1 Bft) 0,00 h 4,1 km/h (1 Bft)
02.09.2009 00:00 21,7 C 16,4 C 0,0 UV-I 0,0 C 66 % 91 % 0 % 1013,9 hPa 0,0 l/m 2,6 km/h (1 Bft) 0,00 h 5,9 km/h (2 Bft)
02.09.2009 01:00 21,6 C 16,2 C 0,0 UV-I 0,0 C 65 % 89 % 0 % 1014,6 hPa 0,0 l/m 1,3 km/h (1 Bft) 0,00 h 3,9 km/h (1 Bft)
02.09.2009 02:00 21,5 C 15,3 C 0,0 UV-I 0,0 C 63 % 88 % 0 % 1014,8 hPa 0,0 l/m 1,2 km/h (1 Bft) 0,00 h 3,3 km/h (1 Bft)
02.09.2009 03:00 21,3 C 14,8 C 0,0 UV-I 0,0 C 62 % 88 % 0 % 1014,7 hPa 0,0 l/m 0,8 km/h (0 Bft) 0,00 h 2,5 km/h (1 Bft)
02.09.2009 04:00 21,1 C 14,4 C 0,0 UV-I 0,0 C 61 % 88 % 0 % 1014,8 hPa 0,0 l/m 1,0 km/h (0 Bft) 0,00 h 3,2 km/h (1 Bft)
02.09.2009 05:00 21,0 C 14,0 C 0,0 UV-I 0,0 C 60 % 89 % 0 % 1014,8 hPa 0,0 l/m 0,4 km/h (0 Bft) 0,00 h 2,1 km/h (1 Bft)
02.09.2009 06:00 21,0 C 13,5 C 0,0 UV-I 0,0 C 60 % 90 % 0 % 1014,8 hPa 0,0 l/m 2,5 km/h (1 Bft) 0,00 h 4,2 km/h (1 Bft)
02.09.2009 07:00 20,8 C 13,5 C 0,0 UV-I 0,0 C 61 % 91 % 0 % 1015,1 hPa 0,0 l/m 2,8 km/h (1 Bft) 0,00 h 4,9 km/h (1 Bft)
02.09.2009 08:00 21,0 C 14,1 C 0,3 UV-I 0,5 C 61 % 92 % 13 % 1015,5 hPa 0,0 l/m 2,1 km/h (1 Bft) 0,00 h 4,5 km/h (1 Bft)
02.09.2009 09:00 21,1 C 15,7 C 0,8 UV-I 1,3 C 61 % 89 % 38 % 1015,6 hPa 0,0 l/m 3,3 km/h (1 Bft) 0,00 h 5,7 km/h (1 Bft)
02.09.2009 10:00 21,3 C 17,5 C 4,7 UV-I 3,4 C 61 % 81 % 89 % 1016,1 hPa 0,0 l/m 4,5 km/h (1 Bft) 0,80 h 9,8 km/h (2 Bft)
02.09.2009 11:00 21,5 C 19,3 C 5,4 UV-I 2,8 C 59 % 70 % 74 % 1016,1 hPa 0,0 l/m 4,7 km/h (1 Bft) 0,40 h 11,2 km/h (2 Bft)
02.09.2009 12:00 21,9 C 20,4 C 4,6 UV-I 2,3 C 57 % 65 % 64 % 1015,7 hPa 0,0 l/m 4,6 km/h (1 Bft) 0,33 h 7,3 km/h (2 Bft)
02.09.2009 13:00 22,4 C 21,1 C 3,6 UV-I 2,1 C 56 % 63 % 58 % 1015,4 hPa 0,0 l/m 4,4 km/h (1 Bft) 0,33 h 7,7 km/h (2 Bft)
02.09.2009 14:00 23,1 C 21,5 C 2,3 UV-I 0,7 C 54 % 59 % 20 % 1015,0 hPa 0,1 l/m 4,2 km/h (1 Bft) 0,00 h 7,4 km/h (2 Bft)
02.09.2009 15:00 23,3 C 21,1 C 3,8 UV-I 1,5 C 52 % 57 % 44 % 1014,8 hPa 0,0 l/m 5,5 km/h (1 Bft) 0,07 h 8,8 km/h (2 Bft)
02.09.2009 16:00 24,8 C 22,2 C 2,4 UV-I 4,3 C 47 % 53 % 98 % 1016,3 hPa 0,0 l/m 5,6 km/h (1 Bft) 0,97 h 9,2 km/h (2 Bft)
02.09.2009 17:00 24,9 C 21,9 C 1,4 UV-I 2,2 C 45 % 50 % 56 % 1014,4 hPa 0,0 l/m 6,1 km/h (2 Bft) 0,30 h 9,8 km/h (2 Bft)
02.09.2009 18:00 23,9 C 20,6 C 0,8 UV-I 0,0 C 46 % 53 % 0 % 1012,8 hPa 0,0 l/m 4,7 km/h (1 Bft) 0,00 h 8,6 km/h (2 Bft)
02.09.2009 19:00 23,3 C 19,7 C 0,2 UV-I 0,0 C 47 % 56 % 0 % 1011,9 hPa 0,0 l/m 2,0 km/h (1 Bft) 0,00 h 4,6 km/h (1 Bft)
02.09.2009 20:00 22,8 C 18,6 C 0,0 UV-I 0,0 C 48 % 60 % 0 % 1011,3 hPa 0,0 l/m 0,6 km/h (0 Bft) 0,00 h 1,6 km/h (1 Bft)
02.09.2009 21:00 22,4 C 16,9 C 0,0 UV-I 0,0 C 51 % 67 % 0 % 1010,2 hPa 0,0 l/m 0,0 km/h (0 Bft) 0,00 h 0,2 km/h (0 Bft)
02.09.2009 22:00 22,1 C 15,6 C 0,0 UV-I 0,0 C 52 % 72 % 0 % 1009,2 hPa 0,0 l/m 0,5 km/h (0 Bft) 0,00 h 1,3 km/h (1 Bft)
02.09.2009 23:00 21,8 C 14,7 C 0,0 UV-I 0,0 C 52 % 75 % 0 % 1008,4 hPa 0,0 l/m 0,1 km/h (0 Bft) 0,00 h 0,7 km/h (0 Bft)
03.09.2009 00:00 21,7 C 14,7 C 0,0 UV-I 0,0 C 53 % 77 % 0 % 1007,1 hPa 0,0 l/m 0,4 km/h (0 Bft) 0,00 h 1,8 km/h (1 Bft)
03.09.2009 01:00 21,6 C 15,2 C 0,0 UV-I 0,0 C 54 % 79 % 0 % 1006,1 hPa 0,0 l/m 2,8 km/h (1 Bft) 0,00 h 6,4 km/h (2 Bft)
03.09.2009 02:00 21,5 C 15,8 C 0,0 UV-I 0,1 C 55 % 78 % 0 % 1004,8 hPa 0,0 l/m 6,6 km/h (2 Bft) 0,00 h 11,7 km/h (2 Bft)
03.09.2009 03:00 21,4 C 15,9 C 0,0 UV-I 0,0 C 57 % 80 % 0 % 1003,3 hPa 0,4 l/m 6,4 km/h (2 Bft) 0,00 h 9,6 km/h (2 Bft)
03.09.2009 04:00 21,2 C 15,1 C 0,0 UV-I 0,0 C 59 % 86 % 0 % 1001,9 hPa 1,5 l/m 5,0 km/h (1 Bft) 0,00 h 8,7 km/h (2 Bft)
03.09.2009 05:00 21,1 C 14,8 C 0,0 UV-I 0,0 C 61 % 89 % 0 % 1000,4 hPa 1,1 l/m 3,8 km/h (1 Bft) 0,00 h 7,2 km/h (2 Bft)
03.09.2009 06:00 20,9 C 14,8 C 0,0 UV-I 0,0 C 63 % 91 % 0 % 999,2 hPa 0,2 l/m 4,6 km/h (1 Bft) 0,00 h 8,5 km/h (2 Bft)
03.09.2009 07:00 21,0 C 15,1 C 0,0 UV-I 0,0 C 63 % 92 % 0 % 998,6 hPa 0,1 l/m 4,1 km/h (1 Bft) 0,00 h 7,6 km/h (2 Bft)
03.09.2009 08:00 20,9 C 15,8 C 0,3 UV-I 0,0 C 64 % 91 % 0 % 998,6 hPa 0,4 l/m 5,3 km/h (1 Bft) 0,00 h 10,7 km/h (2 Bft)
03.09.2009 09:00 20,8 C 15,8 C 0,8 UV-I 0,1 C 64 % 89 % 2 % 999,0 hPa 0,6 l/m 6,2 km/h (2 Bft) 0,00 h 12,4 km/h (3 Bft)
03.09.2009 10:00 20,8 C 16,5 C 5,5 UV-I 2,4 C 62 % 82 % 69 % 999,3 hPa 0,0 l/m 9,1 km/h (2 Bft) 0,30 h 17,9 km/h (3 Bft)
03.09.2009 11:00 20,8 C 17,5 C 7,5 UV-I 2,4 C 58 % 72 % 65 % 1000,3 hPa 0,1 l/m 10,8 km/h (2 Bft) 0,40 h 18,8 km/h (3 Bft)
03.09.2009 12:00 21,0 C 18,6 C 6,8 UV-I 2,6 C 56 % 65 % 75 % 1000,5 hPa 0,0 l/m 11,8 km/h (2 Bft) 0,33 h 18,5 km/h (3 Bft)
03.09.2009 13:00 21,3 C 18,6 C 2,2 UV-I 1,0 C 55 % 64 % 28 % 1001,0 hPa 0,3 l/m 10,8 km/h (2 Bft) 0,00 h 17,9 km/h (3 Bft)
03.09.2009 14:00 21,9 C 17,8 C 4,4 UV-I 1,3 C 55 % 69 % 38 % 1003,3 hPa 1,7 l/m 11,6 km/h (2 Bft) 0,03 h 19,7 km/h (3 Bft)
03.09.2009 15:00 22,8 C 18,4 C 4,4 UV-I 2,5 C 51 % 64 % 71 % 1003,1 hPa 0,2 l/m 12,0 km/h (2 Bft) 0,43 h 21,9 km/h (4 Bft)
03.09.2009 16:00 23,6 C 19,5 C 1,9 UV-I 1,7 C 46 % 56 % 47 % 1004,3 hPa 0,4 l/m 11,3 km/h (2 Bft) 0,10 h 17,3 km/h (3 Bft)
03.09.2009 17:00 23,2 C 19,3 C 1,5 UV-I 1,3 C 47 % 57 % 38 % 1003,7 hPa 0,0 l/m 10,6 km/h (2 Bft) 0,00 h 18,7 km/h (3 Bft)
03.09.2009 18:00 22,5 C 18,1 C 0,8 UV-I 0,0 C 49 % 63 % 0 % 1004,0 hPa 0,0 l/m 8,9 km/h (2 Bft) 0,00 h 13,3 km/h (3 Bft)
03.09.2009 19:00 21,9 C 17,4 C 0,2 UV-I 0,0 C 48 % 60 % 0 % 1003,3 hPa 0,0 l/m 8,9 km/h (2 Bft) 0,00 h 15,7 km/h (3 Bft)
03.09.2009 20:00 21,3 C 16,6 C 0,0 UV-I 0,0 C 49 % 63 % 0 % 1004,0 hPa 0,0 l/m 6,8 km/h (2 Bft) 0,00 h 12,7 km/h (3 Bft)
03.09.2009 21:00 20,8 C 15,8 C 0,0 UV-I 0,0 C 50 % 66 % 0 % 1004,1 hPa 0,0 l/m 6,3 km/h (2 Bft) 0,00 h 9,0 km/h (2 Bft)
03.09.2009 22:00 20,5 C 15,2 C 0,0 UV-I 0,0 C 51 % 69 % 0 % 1004,0 hPa 0,0 l/m 5,5 km/h (1 Bft) 0,00 h 10,1 km/h (2 Bft)
03.09.2009 23:00 20,3 C 15,2 C 0,0 UV-I 0,0 C 51 % 70 % 0 % 1003,9 hPa 0,0 l/m 8,8 km/h (2 Bft) 0,00 h 13,2 km/h (3 Bft)
04.09.2009 00:00 20,0 C 14,2 C 0,0 UV-I 0,0 C 52 % 74 % 0 % 1004,1 hPa 0,0 l/m 7,1 km/h (2 Bft) 0,00 h 11,2 km/h (2 Bft)
04.09.2009 01:00 19,8 C 13,5 C 0,0 UV-I 0,0 C 54 % 78 % 0 % 1004,4 hPa 0,0 l/m 5,4 km/h (1 Bft) 0,00 h 13,0 km/h (3 Bft)
04.09.2009 02:00 19,6 C 13,5 C 0,0 UV-I 0,0 C 54 % 79 % 0 % 1004,3 hPa 0,0 l/m 5,3 km/h (1 Bft) 0,00 h 10,2 km/h (2 Bft)
04.09.2009 03:00 19,5 C 13,6 C 0,0 UV-I 0,0 C 55 % 79 % 0 % 1004,4 hPa 0,0 l/m 5,3 km/h (1 Bft) 0,00 h 10,6 km/h (2 Bft)
04.09.2009 04:00 19,4 C 13,1 C 0,0 UV-I 0,0 C 55 % 80 % 0 % 1004,7 hPa 0,0 l/m 5,1 km/h (1 Bft) 0,00 h 10,0 km/h (2 Bft)
04.09.2009 05:00 19,2 C 13,1 C 0,0 UV-I 0,0 C 56 % 82 % 0 % 1004,5 hPa 0,0 l/m 5,2 km/h (1 Bft) 0,00 h 10,1 km/h (2 Bft)
04.09.2009 06:00 19,2 C 13,2 C 0,0 UV-I 0,0 C 56 % 81 % 0 % 1004,5 hPa 0,0 l/m 4,8 km/h (1 Bft) 0,00 h 8,5 km/h (2 Bft)
04.09.2009 07:00 19,2 C 13,0 C 0,0 UV-I 0,0 C 56 % 82 % 0 % 1004,5 hPa 0,0 l/m 4,5 km/h (1 Bft) 0,00 h 7,7 km/h (2 Bft)
04.09.2009 08:00 19,2 C 13,3 C 0,4 UV-I 0,1 C 56 % 82 % 3 % 1004,7 hPa 0,0 l/m 5,9 km/h (2 Bft) 0,00 h 11,7 km/h (2 Bft)
04.09.2009 09:00 19,2 C 14,2 C 1,0 UV-I 0,7 C 57 % 79 % 20 % 1004,8 hPa 0,0 l/m 6,0 km/h (2 Bft) 0,00 h 11,0 km/h (2 Bft)
04.09.2009 10:00 19,5 C 15,2 C 4,1 UV-I 2,4 C 56 % 75 % 68 % 1004,6 hPa 0,0 l/m 6,2 km/h (2 Bft) 0,43 h 13,1 km/h (3 Bft)
04.09.2009 11:00 19,8 C 16,6 C 3,8 UV-I 2,2 C 55 % 69 % 58 % 1004,6 hPa 0,0 l/m 5,5 km/h (1 Bft) 0,33 h 9,6 km/h (2 Bft)
04.09.2009 12:00 20,0 C 16,7 C 2,0 UV-I 0,5 C 54 % 69 % 14 % 1004,6 hPa 0,0 l/m 5,3 km/h (1 Bft) 0,00 h 8,1 km/h (2 Bft)
04.09.2009 13:00 20,1 C 16,1 C 0,4 UV-I 0,2 C 56 % 73 % 5 % 1004,6 hPa 0,1 l/m 2,9 km/h (1 Bft) 0,00 h 6,0 km/h (2 Bft)
04.09.2009 14:00 20,2 C 15,5 C 2,0 UV-I 0,3 C 58 % 79 % 8 % 1005,0 hPa 0,0 l/m 4,1 km/h (1 Bft) 0,00 h 7,6 km/h (2 Bft)
04.09.2009 15:00 20,3 C 15,3 C 1,5 UV-I 1,0 C 59 % 82 % 24 % 1005,2 hPa 0,0 l/m 2,5 km/h (1 Bft) 0,20 h 4,3 km/h (1 Bft)
04.09.2009 16:00 22,3 C 17,3 C 1,9 UV-I 3,3 C 53 % 68 % 73 % 1007,9 hPa 0,0 l/m 5,4 km/h (1 Bft) 0,53 h 9,9 km/h (2 Bft)
04.09.2009 17:00 22,1 C 16,2 C 0,7 UV-I 0,5 C 51 % 69 % 14 % 1007,1 hPa 0,1 l/m 4,3 km/h (1 Bft) 0,07 h 9,0 km/h (2 Bft)
04.09.2009 18:00 21,3 C 15,5 C 0,7 UV-I 0,0 C 53 % 74 % 0 % 1007,5 hPa 0,0 l/m 4,0 km/h (1 Bft) 0,00 h 6,6 km/h (2 Bft)
04.09.2009 19:00 20,8 C 15,3 C 0,1 UV-I 0,0 C 53 % 71 % 0 % 1008,5 hPa 0,0 l/m 4,9 km/h (1 Bft) 0,00 h 9,2 km/h (2 Bft)
04.09.2009 20:00 20,3 C 14,5 C 0,0 UV-I 0,0 C 51 % 70 % 0 % 1009,2 hPa 0,0 l/m 2,5 km/h (1 Bft) 0,00 h 5,2 km/h (1 Bft)
04.09.2009 21:00 19,9 C 13,9 C 0,0 UV-I 0,0 C 51 % 72 % 0 % 1009,9 hPa 0,0 l/m 3,1 km/h (1 Bft) 0,00 h 6,3 km/h (2 Bft)
04.09.2009 22:00 19,5 C 14,1 C 0,0 UV-I 0,0 C 52 % 72 % 0 % 1010,4 hPa 0,0 l/m 5,0 km/h (1 Bft) 0,00 h 8,3 km/h (2 Bft)
04.09.2009 23:00 19,4 C 13,8 C 0,0 UV-I 0,0 C 54 % 77 % 0 % 1011,4 hPa 0,0 l/m 5,7 km/h (1 Bft) 0,00 h 10,9 km/h (2 Bft)
05.09.2009 00:00 19,2 C 12,9 C 0,0 UV-I 0,0 C 57 % 83 % 0 % 1012,2 hPa 0,2 l/m 5,2 km/h (1 Bft) 0,00 h 8,6 km/h (2 Bft)
05.09.2009 01:00 19,0 C 12,6 C 0,0 UV-I 0,0 C 59 % 86 % 0 % 1012,6 hPa 0,0 l/m 4,6 km/h (1 Bft) 0,00 h 10,4 km/h (2 Bft)
05.09.2009 02:00 18,8 C 12,8 C 0,0 UV-I 0,0 C 59 % 86 % 0 % 1012,9 hPa 0,0 l/m 5,2 km/h (1 Bft) 0,00 h 9,1 km/h (2 Bft)
05.09.2009 03:00 18,8 C 13,4 C 0,0 UV-I 0,0 C 59 % 84 % 0 % 1013,2 hPa 0,0 l/m 5,6 km/h (1 Bft) 0,00 h 9,4 km/h (2 Bft)
05.09.2009 04:00 18,8 C 13,8 C 0,0 UV-I 0,0 C 59 % 82 % 0 % 1013,7 hPa 0,0 l/m 5,5 km/h (1 Bft) 0,00 h 10,4 km/h (2 Bft)
05.09.2009 05:00 18,8 C 14,0 C 0,0 UV-I 0,0 C 59 % 81 % 0 % 1014,3 hPa 0,0 l/m 4,5 km/h (1 Bft) 0,00 h 8,1 km/h (2 Bft)
05.09.2009 06:00 18,8 C 13,8 C 0,0 UV-I 0,0 C 58 % 80 % 0 % 1014,7 hPa 0,0 l/m 5,2 km/h (1 Bft) 0,00 h 9,2 km/h (2 Bft)
05.09.2009 07:00 18,8 C 13,3 C 0,0 UV-I 0,0 C 59 % 82 % 0 % 1015,4 hPa 0,0 l/m 4,9 km/h (1 Bft) 0,00 h 9,0 km/h (2 Bft)
05.09.2009 08:00 19,0 C 13,4 C 0,4 UV-I 0,1 C 59 % 83 % 2 % 1016,3 hPa 0,0 l/m 5,4 km/h (1 Bft) 0,00 h 9,4 km/h (2 Bft)
05.09.2009 09:00 18,9 C 14,2 C 1,2 UV-I 0,6 C 59 % 82 % 17 % 1017,1 hPa 0,0 l/m 6,9 km/h (2 Bft) 0,00 h 12,3 km/h (3 Bft)
05.09.2009 10:00 19,1 C 15,5 C 4,2 UV-I 4,0 C 60 % 78 % 92 % 1017,9 hPa 0,0 l/m 6,6 km/h (2 Bft) 0,80 h 12,0 km/h (2 Bft)
05.09.2009 11:00 19,5 C 16,5 C 3,8 UV-I 1,9 C 59 % 74 % 54 % 1018,7 hPa 0,0 l/m 5,4 km/h (1 Bft) 0,20 h 11,8 km/h (2 Bft)
05.09.2009 12:00 19,9 C 17,4 C 3,7 UV-I 2,0 C 58 % 69 % 58 % 1019,2 hPa 0,0 l/m 5,8 km/h (2 Bft) 0,13 h 10,5 km/h (2 Bft)
05.09.2009 13:00 20,3 C 17,8 C 3,9 UV-I 2,0 C 55 % 65 % 55 % 1019,7 hPa 0,0 l/m 7,2 km/h (2 Bft) 0,17 h 11,5 km/h (2 Bft)
05.09.2009 14:00 21,2 C 18,5 C 4,2 UV-I 2,4 C 53 % 62 % 59 % 1021,1 hPa 0,0 l/m 6,4 km/h (2 Bft) 0,30 h 10,3 km/h (2 Bft)
05.09.2009 15:00 22,0 C 18,8 C 4,5 UV-I 2,2 C 51 % 62 % 55 % 1021,8 hPa 0,0 l/m 4,8 km/h (1 Bft) 0,30 h 8,9 km/h (2 Bft)
05.09.2009 16:00 22,7 C 19,1 C 1,9 UV-I 2,9 C 49 % 59 % 73 % 1022,4 hPa 0,0 l/m 5,3 km/h (1 Bft) 0,57 h 9,6 km/h (2 Bft)
05.09.2009 17:00 23,3 C 19,3 C 1,4 UV-I 2,8 C 45 % 54 % 68 % 1022,3 hPa 0,0 l/m 6,6 km/h (2 Bft) 0,50 h 12,4 km/h (3 Bft)
05.09.2009 18:00 22,6 C 18,1 C 0,6 UV-I 0,1 C 46 % 56 % 2 % 1022,3 hPa 0,0 l/m 5,3 km/h (1 Bft) 0,00 h 10,0 km/h (2 Bft)
05.09.2009 19:00 21,8 C 17,3 C 0,1 UV-I 0,0 C 47 % 58 % 0 % 1022,4 hPa 0,0 l/m 4,1 km/h (1 Bft) 0,00 h 7,2 km/h (2 Bft)
05.09.2009 20:00 21,2 C 15,9 C 0,0 UV-I 0,0 C 48 % 62 % 0 % 1022,8 hPa 0,0 l/m 1,5 km/h (1 Bft) 0,00 h 3,0 km/h (1 Bft)
05.09.2009 21:00 20,7 C 14,2 C 0,0 UV-I 0,0 C 49 % 68 % 0 % 1023,5 hPa 0,0 l/m 0,0 km/h (0 Bft) 0,00 h 0,2 km/h (0 Bft)
05.09.2009 22:00 20,3 C 12,7 C 0,0 UV-I 0,0 C 50 % 73 % 0 % 1023,6 hPa 0,0 l/m 0,0 km/h (0 Bft) 0,00 h 0,0 km/h (0 Bft)
05.09.2009 23:00 20,0 C 11,7 C 0,0 UV-I 0,0 C 50 % 78 % 0 % 1023,9 hPa 0,0 l/m 0,0 km/h (0 Bft) 0,00 h 0,4 km/h (0 Bft)
06.09.2009 00:00 19,8 C 11,3 C 0,0 UV-I 0,0 C 51 % 80 % 0 % 1024,0 hPa 0,0 l/m 0,0 km/h (0 Bft) 0,00 h 0,1 km/h (0 Bft)
06.09.2009 01:00 19,4 C 11,2 C 0,0 UV-I 0,0 C 51 % 81 % 0 % 1023,6 hPa 0,0 l/m 0,7 km/h (0 Bft) 0,00 h 2,2 km/h (1 Bft)
06.09.2009 02:00 19,1 C 11,3 C 0,0 UV-I 0,0 C 51 % 81 % 0 % 1023,7 hPa 0,0 l/m 1,2 km/h (1 Bft) 0,00 h 3,6 km/h (1 Bft)
06.09.2009 03:00 19,0 C 11,9 C 0,0 UV-I 0,0 C 52 % 81 % 0 % 1023,4 hPa 0,0 l/m 2,9 km/h (1 Bft) 0,00 h 6,0 km/h (2 Bft)
06.09.2009 04:00 18,9 C 12,3 C 0,0 UV-I 0,0 C 54 % 81 % 0 % 1023,5 hPa 0,0 l/m 2,4 km/h (1 Bft) 0,00 h 3,8 km/h (1 Bft)
06.09.2009 05:00 18,8 C 12,7 C 0,0 UV-I 0,0 C 56 % 83 % 0 % 1023,6 hPa 0,0 l/m 2,5 km/h (1 Bft) 0,00 h 4,6 km/h (1 Bft)
06.09.2009 06:00 18,8 C 12,7 C 0,0 UV-I 0,0 C 57 % 84 % 0 % 1023,5 hPa 0,0 l/m 1,7 km/h (1 Bft) 0,00 h 2,4 km/h (1 Bft)
06.09.2009 07:00 18,9 C 12,2 C 0,0 UV-I 0,0 C 57 % 85 % 0 % 1023,7 hPa 0,0 l/m 1,5 km/h (1 Bft) 0,00 h 4,5 km/h (1 Bft)
06.09.2009 08:00 18,9 C 12,2 C 0,5 UV-I 0,0 C 58 % 87 % 1 % 1024,2 hPa 0,0 l/m 2,7 km/h (1 Bft) 0,00 h 7,1 km/h (2 Bft)
06.09.2009 09:00 18,9 C 13,4 C 0,9 UV-I 0,9 C 60 % 86 % 25 % 1024,5 hPa 0,0 l/m 3,7 km/h (1 Bft) 0,00 h 8,0 km/h (2 Bft)
06.09.2009 10:00 19,1 C 14,5 C 1,4 UV-I 1,2 C 60 % 84 % 34 % 1024,9 hPa 0,0 l/m 4,6 km/h (1 Bft) 0,00 h 9,7 km/h (2 Bft)
06.09.2009 11:00 19,4 C 16,0 C 3,2 UV-I 2,4 C 60 % 80 % 68 % 1025,3 hPa 0,0 l/m 4,3 km/h (1 Bft) 0,10 h 6,9 km/h (2 Bft)
06.09.2009 12:00 19,9 C 17,5 C 3,5 UV-I 2,5 C 59 % 74 % 73 % 1025,5 hPa 0,0 l/m 3,9 km/h (1 Bft) 0,27 h 6,6 km/h (2 Bft)
06.09.2009 13:00 20,4 C 18,3 C 1,7 UV-I 1,2 C 57 % 69 % 34 % 1025,1 hPa 0,0 l/m 2,8 km/h (1 Bft) 0,10 h 6,1 km/h (2 Bft)
06.09.2009 14:00 20,4 C 17,9 C 1,0 UV-I 0,2 C 57 % 70 % 6 % 1024,9 hPa 0,0 l/m 2,4 km/h (1 Bft) 0,00 h 5,2 km/h (1 Bft)
06.09.2009 15:00 20,7 C 18,6 C 2,4 UV-I 1,8 C 57 % 68 % 52 % 1025,1 hPa 0,0 l/m 2,9 km/h (1 Bft) 0,17 h 5,8 km/h (2 Bft)
06.09.2009 16:00 21,4 C 19,3 C 1,6 UV-I 1,4 C 55 % 63 % 39 % 1025,1 hPa 0,0 l/m 2,7 km/h (1 Bft) 0,00 h 6,8 km/h (2 Bft)
06.09.2009 17:00 21,8 C 19,6 C 1,5 UV-I 2,3 C 53 % 59 % 65 % 1024,8 hPa 0,0 l/m 2,3 km/h (1 Bft) 0,20 h 4,6 km/h (1 Bft)
06.09.2009 18:00 21,8 C 19,4 C 0,6 UV-I 0,5 C 51 % 58 % 14 % 1024,6 hPa 0,0 l/m 1,5 km/h (1 Bft) 0,00 h 3,6 km/h (1 Bft)
06.09.2009 19:00 21,4 C 18,2 C 0,0 UV-I 0,0 C 52 % 63 % 0 % 1024,2 hPa 0,0 l/m 0,1 km/h (0 Bft) 0,00 h 0,0 km/h (0 Bft)
06.09.2009 20:00 20,9 C 16,4 C 0,0 UV-I 0,0 C 55 % 71 % 0 % 1023,8 hPa 0,0 l/m 0,0 km/h (0 Bft) 0,00 h 0,0 km/h (0 Bft)
06.09.2009 21:00 20,5 C 14,5 C 0,0 UV-I 0,0 C 56 % 78 % 0 % 1023,7 hPa 0,0 l/m 0,0 km/h (0 Bft) 0,00 h 0,0 km/h (0 Bft)
06.09.2009 22:00 20,1 C 13,0 C 0,0 UV-I 0,0 C 57 % 82 % 0 % 1023,5 hPa 0,0 l/m 0,0 km/h (0 Bft) 0,00 h 0,0 km/h (0 Bft)
06.09.2009 23:00 19,8 C 12,1 C 0,0 UV-I 0,0 C 57 % 85 % 0 % 1023,4 hPa 0,0 l/m 0,0 km/h (0 Bft) 0,00 h 0,0 km/h (0 Bft)
Min-Datum _ 05.09.09 31.08.09 31.08.09 31.08.09 31.08.09 31.08.09 31.08.09 03.09.09 - 31.08.09 - 31.08.09
_ Min-Zeit 03:00 06:56 00:00 00:00 16:40 16:34 00:00 07:16 - 00:00 - 00:00
Minimum _ 18,7 C 10,6 C 0,0 UV-I 0,0 C 40 % 36 % 0 % 998,5 hPa - 0,0 km/h (0 Bft) - 0,0 km/h (0 Bft)
Max-Datum _ 31.08.09 31.08.09 31.08.09 31.08.09 01.09.09 01.09.09 31.08.09 06.09.09 03.09.09 03.09.09 31.08.09 03.09.09
_ Max-Zeit 16:42 16:30 11:02 10:20 21:29 22:42 09:52 11:56 14:48 14:46 09:48 13:02
Maximum _ 27,8 C 30,0 C 14,1 UV-I 7,5 C 67 % 92 % 100 % 1025,6 hPa 1,7 l/m 15,6 km/h
N-NO (3 Bft)
0,03 h 44,7 km/h
W (6 Bft)
Durchschnitt _ 21,2 C 16,7 C 1,2 UV-I 0,7 C 54 % 72 % 19 % 1013,4 hPa #8,0 l/m 3,6 km/h (1 Bft) #16:54 h 6,9 km/h (2 Bft)
© 2012 W. Hausmann